Time;durP1;ratioP1;P1;durP2;ratioP2;P2;SDS_P1;SDS_P2;PMS_P1;PMS_P2;Temp;Humidity;BMP_temperature;BMP_pressure;BME280_temperature;BME280_humidity;BME280_pressure;Samples;Min_cycle;Max_cycle;Signal;HPM_P1;HPM_P2
2023/10/17 00:02:10;;;;;;;10.13;8.27;;;;;;;3.88;100.00;96448.22;4955714;28;101983;-74
2023/10/17 00:04:38;;;;;;;10.63;8.33;;;;;;;3.88;100.00;96464.00;4935396;28;105633;-73
2023/10/17 00:07:05;;;;;;;8.67;7.80;;;;;;;3.78;100.00;96457.56;4936028;28;101780;-73
2023/10/17 00:09:36;;;;;;;10.60;8.67;;;;;;;3.87;100.00;96461.59;4936044;28;105242;-73
2023/10/17 00:12:09;;;;;;;10.20;8.77;;;;;;;3.97;100.00;96456.69;4935296;28;105356;-73
2023/10/17 00:14:45;;;;;;;9.87;8.87;;;;;;;3.98;100.00;96451.22;4953666;28;101695;-73
2023/10/17 00:17:13;;;;;;;10.53;9.27;;;;;;;4.09;100.00;96455.06;4935838;28;105049;-73
2023/10/17 00:19:41;;;;;;;9.67;8.70;;;;;;;4.15;100.00;96451.59;4935183;28;105729;-74
2023/10/17 00:22:09;;;;;;;10.37;9.27;;;;;;;4.22;100.00;96450.53;4935717;28;101946;-74
2023/10/17 00:24:36;;;;;;;9.73;8.73;;;;;;;4.16;100.00;96453.19;4938249;28;105417;-74
2023/10/17 00:27:03;;;;;;;10.10;9.10;;;;;;;4.25;100.00;96465.09;4935640;28;102203;-74
2023/10/17 00:29:31;;;;;;;11.07;9.73;;;;;;;4.34;100.00;96454.13;4935425;28;104870;-74
2023/10/17 00:32:00;;;;;;;10.27;9.23;;;;;;;4.34;100.00;96448.84;4935556;28;104328;-74
2023/10/17 00:34:28;;;;;;;10.33;8.90;;;;;;;4.37;100.00;96439.72;4936112;28;101958;-74
2023/10/17 00:37:00;;;;;;;10.03;8.93;;;;;;;4.40;100.00;96437.47;4955242;28;105550;-74
2023/10/17 00:39:30;;;;;;;11.10;9.33;;;;;;;4.46;100.00;96438.44;4953888;28;104023;-74
2023/10/17 00:42:17;;;;;;;10.63;9.63;;;;;;;4.43;100.00;96438.88;4954953;28;101957;-74
2023/10/17 00:44:47;;;;;;;11.03;9.83;;;;;;;4.52;100.00;96440.22;4954917;28;105095;-74
2023/10/17 00:47:18;;;;;;;10.80;9.40;;;;;;;4.51;100.00;96438.63;4957598;28;105482;-74
2023/10/17 00:49:46;;;;;;;9.43;8.43;;;;;;;4.32;100.00;96436.91;4954846;28;105250;-74
2023/10/17 00:52:18;;;;;;;10.20;9.20;;;;;;;4.32;100.00;96442.97;4953667;28;105449;-74
2023/10/17 00:54:49;;;;;;;12.00;9.67;;;;;;;4.42;100.00;96447.81;4954780;28;102345;-74
2023/10/17 00:57:17;;;;;;;9.87;8.83;;;;;;;4.38;100.00;96449.25;4954841;28;105070;-74
2023/10/17 00:59:50;;;;;;;12.80;9.00;;;;;;;4.18;100.00;96449.34;4953594;28;105308;-74
2023/10/17 01:02:21;;;;;;;11.93;9.63;;;;;;;4.18;100.00;96446.69;4954525;28;101944;-74
2023/10/17 01:04:52;;;;;;;11.03;9.70;;;;;;;4.19;100.00;96450.13;4954690;28;105302;-75
2023/10/17 01:07:29;;;;;;;11.87;10.13;;;;;;;4.21;100.00;96448.13;4953669;28;105982;-77
2023/10/17 01:10:05;;;;;;;13.63;10.07;;;;;;;4.13;100.00;96451.78;4956953;28;101859;-76
2023/10/17 01:12:33;;;;;;;11.37;10.03;;;;;;;4.18;100.00;96451.16;4953137;28;105738;-77
2023/10/17 01:15:00;;;;;;;11.77;10.30;;;;;;;4.14;100.00;96452.59;4953635;28;101969;-77
2023/10/17 01:17:29;;;;;;;14.67;11.10;;;;;;;4.18;100.00;96451.97;4953778;28;105551;-77
2023/10/17 01:20:02;;;;;;;11.93;10.43;;;;;;;4.17;100.00;96439.84;4952644;28;105665;-77
2023/10/17 01:22:32;;;;;;;11.70;9.90;;;;;;;4.33;100.00;96433.28;4953517;28;101935;-77
2023/10/17 01:25:07;;;;;;;11.90;10.30;;;;;;;4.42;100.00;96424.13;4954413;28;104102;-77
2023/10/17 01:27:34;;;;;;;10.73;9.63;;;;;;;4.45;100.00;96434.22;4952797;28;105547;-77
2023/10/17 01:30:01;;;;;;;12.13;10.23;;;;;;;4.49;100.00;96432.78;4974163;28;101744;-77
2023/10/17 01:32:28;;;;;;;14.07;9.73;;;;;;;4.55;100.00;96434.56;4952763;28;105422;-77
2023/10/17 01:34:55;;;;;;;13.43;10.97;;;;;;;4.44;100.00;96437.88;4953944;28;101950;-77
2023/10/17 01:37:22;;;;;;;12.73;10.33;;;;;;;4.49;100.00;96438.03;4953123;28;105446;-77
2023/10/17 01:39:49;;;;;;;14.97;11.33;;;;;;;4.41;100.00;96443.53;4952019;28;105875;-77
2023/10/17 01:42:18;;;;;;;12.73;10.03;;;;;;;4.43;100.00;96436.25;4953089;28;102077;-77
2023/10/17 01:44:46;;;;;;;11.37;10.17;;;;;;;4.31;100.00;96437.94;4952949;28;105502;-77
2023/10/17 01:47:14;;;;;;;13.43;10.87;;;;;;;4.36;100.00;96440.75;4952591;28;105219;-74
2023/10/17 01:49:41;;;;;;;13.23;11.23;;;;;;;4.32;100.00;96436.91;4952958;28;101865;-73
2023/10/17 01:52:11;;;;;;;16.53;11.23;;;;;;;4.26;100.00;96430.66;4955938;28;105263;-73
2023/10/17 01:54:39;;;;;;;14.20;10.80;;;;;;;4.20;100.00;96431.50;4952613;28;102009;-73
2023/10/17 01:57:07;;;;;;;13.73;11.03;;;;;;;4.37;100.00;96431.84;4952708;28;105350;-74
2023/10/17 01:59:36;;;;;;;12.20;10.57;;;;;;;4.37;100.00;96437.09;4952326;28;105837;-74
2023/10/17 02:02:04;;;;;;;12.47;10.70;;;;;;;4.13;100.00;96433.38;4952501;28;102009;-74
2023/10/17 02:04:34;;;;;;;14.00;11.67;;;;;;;4.24;100.00;96442.41;4952169;28;105931;-75
2023/10/17 02:07:02;;;;;;;13.23;11.00;;;;;;;4.10;100.00;96443.50;4952263;28;105540;-75
2023/10/17 02:12:09;;;;;;;13.57;10.87;;;;;;;4.36;100.00;96446.03;4952150;28;104026;-73
2023/10/17 02:14:41;;;;;;;13.43;11.23;;;;;;;4.44;100.00;96446.59;4955531;28;105708;-73
2023/10/17 02:17:10;;;;;;;12.17;10.87;;;;;;;4.48;100.00;96439.06;4952745;28;104425;-73
2023/10/17 02:19:38;;;;;;;14.83;11.17;;;;;;;4.55;100.00;96442.47;4952122;28;105362;-74
2023/10/17 02:22:09;;;;;;;14.13;10.97;;;;;;;4.57;100.00;96443.03;4970126;28;101893;-74
2023/10/17 02:24:37;;;;;;;15.27;11.10;;;;;;;4.50;100.00;96431.75;4952329;28;105322;-74
2023/10/17 02:27:09;;;;;;;16.47;12.23;;;;;;;4.33;100.00;96422.75;4951910;28;104610;-74
2023/10/17 02:29:39;;;;;;;15.70;11.57;;;;;;;4.27;100.00;96421.75;4952605;28;101913;-73
2023/10/17 02:32:11;;;;;;;12.33;10.97;;;;;;;4.16;100.00;96417.13;4952373;28;105363;-73
2023/10/17 02:34:38;;;;;;;13.67;11.53;;;;;;;4.31;100.00;96416.88;4951696;28;105533;-73
2023/10/17 02:37:10;;;;;;;12.23;10.93;;;;;;;4.14;100.00;96410.50;4955767;28;102078;-73
2023/10/17 02:39:39;;;;;;;13.23;10.90;;;;;;;4.08;100.00;96413.94;4950995;28;105228;-73
2023/10/17 02:42:09;;;;;;;14.50;11.40;;;;;;;4.22;100.00;96407.63;4952163;28;101928;-73
2023/10/17 02:44:39;;;;;;;13.27;10.83;;;;;;;4.37;100.00;96406.31;4952043;28;105349;-73
2023/10/17 02:47:12;;;;;;;12.67;10.80;;;;;;;4.38;100.00;96412.38;4951693;28;105433;-73
2023/10/17 02:49:43;;;;;;;14.77;11.67;;;;;;;4.37;100.00;96413.41;4952299;28;102130;-73
2023/10/17 02:52:10;;;;;;;14.87;11.20;;;;;;;4.34;100.00;96419.09;4952171;28;104719;-74
2023/10/17 02:54:55;;;;;;;15.60;12.00;;;;;;;4.30;100.00;96415.25;4951601;28;105075;-74
2023/10/17 02:57:24;;;;;;;14.37;11.13;;;;;;;4.39;100.00;96414.00;4952159;28;101825;-74
2023/10/17 02:59:56;;;;;;;14.10;12.00;;;;;;;4.47;100.00;96411.91;4954765;28;104964;-74
2023/10/17 03:02:36;;;;;;;15.83;12.33;;;;;;;4.51;100.00;96407.03;4951841;28;101793;-74
2023/10/17 03:05:11;;;;;;;19.03;12.33;;;;;;;4.51;100.00;96407.03;4952013;28;103811;-74
2023/10/17 03:07:38;;;;;;;19.80;13.77;;;;;;;4.41;100.00;96406.69;4951251;28;105427;-74
2023/10/17 03:10:07;;;;;;;21.23;13.50;;;;;;;4.53;100.00;96415.53;4951667;28;102058;-76
2023/10/17 03:12:40;;;;;;;20.73;13.47;;;;;;;4.56;100.00;96410.66;4951584;28;104909;-76
2023/10/17 03:15:22;;;;;;;21.00;13.97;;;;;;;4.59;100.00;96406.78;4950840;28;105777;-76
2023/10/17 03:17:53;;;;;;;20.13;13.73;;;;;;;4.57;100.00;96403.53;4951650;28;101887;-76
2023/10/17 03:20:26;;;;;;;20.23;14.27;;;;;;;4.61;100.00;96402.09;4951666;28;105595;-76
2023/10/17 03:22:54;;;;;;;22.57;16.37;;;;;;;4.59;100.00;96401.53;4954130;28;102092;-76
2023/10/17 03:25:24;;;;;;;22.60;17.20;;;;;;;4.52;100.00;96404.19;4952622;28;101786;-74
2023/10/17 03:27:51;;;;;;;25.40;17.97;;;;;;;4.43;100.00;96405.44;4951151;28;104379;-74
2023/10/17 03:30:20;;;;;;;28.23;18.20;;;;;;;4.36;100.00;96406.53;4951670;28;101940;-74
2023/10/17 03:33:02;;;;;;;23.47;17.20;;;;;;;4.32;100.00;96402.72;4951415;28;105522;-75
2023/10/17 03:36:04;;;;;;;21.87;16.57;;;;;;;4.49;100.00;96403.81;4950669;28;105235;-74
2023/10/17 03:38:32;;;;;;;24.07;17.33;;;;;;;4.64;100.00;96406.97;4968669;28;101799;-74
2023/10/17 03:44:56;;;;;;;22.17;15.67;;;;;;;4.27;100.00;96405.94;4912184;28;102417;-74
2023/10/17 03:51:21;;;;;;;21.80;16.27;;;;;;;4.48;100.00;96410.09;4950874;28;104272;-73
2023/10/17 03:53:50;;;;;;;22.93;16.93;;;;;;;4.48;100.00;96418.78;4951308;28;102049;-74
2023/10/17 03:56:24;;;;;;;25.63;17.87;;;;;;;4.57;100.00;96416.72;4968595;28;105252;-74
2023/10/17 03:58:54;;;;;;;24.33;17.43;;;;;;;4.58;100.00;96423.63;4951893;28;102775;-74
2023/10/17 04:01:23;;;;;;;27.37;17.33;;;;;;;4.48;100.00;96428.53;4952064;28;101780;-74
2023/10/17 04:03:53;;;;;;;29.00;18.57;;;;;;;4.36;100.00;96424.97;4952074;28;105337;-74
2023/10/17 04:06:34;;;;;;;23.23;18.07;;;;;;;4.35;100.00;96418.88;4951542;28;106634;-74
2023/10/17 04:11:53;;;;;;;28.87;18.17;;;;;;;4.22;100.00;96433.94;4951147;28;104650;-81
2023/10/17 04:14:33;;;;;;;20.03;16.47;;;;;;;4.08;100.00;96432.34;4951692;28;101846;-78
2023/10/17 04:17:02;;;;;;;25.70;16.47;;;;;;;4.10;100.00;96441.66;4952048;28;105458;-75
2023/10/17 04:19:30;;;;;;;26.00;18.03;;;;;;;4.14;100.00;96436.81;4951514;28;105138;-75
2023/10/17 04:22:07;;;;;;;48.53;18.90;;;;;;;4.00;100.00;96435.25;4951704;28;101905;-75
2023/10/17 04:24:35;;;;;;;40.10;18.63;;;;;;;4.08;100.00;96427.09;4951853;28;105374;-75
2023/10/17 04:27:19;;;;;;;26.17;19.40;;;;;;;4.08;100.00;96413.94;4970917;28;102865;-75
2023/10/17 04:29:51;;;;;;;23.83;17.77;;;;;;;4.17;100.00;96412.69;4955403;28;101840;-74
2023/10/17 04:32:19;;;;;;;24.67;19.03;;;;;;;4.34;100.00;96413.81;4958021;28;103647;-74
2023/10/17 04:34:46;;;;;;;25.50;17.83;;;;;;;4.33;100.00;96414.84;4954677;28;101938;-74
2023/10/17 04:37:18;;;;;;;25.20;18.80;;;;;;;4.33;100.00;96413.03;4954728;28;105262;-74
2023/10/17 04:39:56;;;;;;;23.07;18.27;;;;;;;4.39;100.00;96398.19;4950715;28;104326;-74
2023/10/17 04:42:35;;;;;;;25.03;18.57;;;;;;;4.35;100.00;96397.81;4951901;28;102012;-75
2023/10/17 04:45:05;;;;;;;22.77;16.83;;;;;;;4.45;100.00;96394.72;4951917;28;105075;-75
2023/10/17 04:47:32;;;;;;;23.30;18.20;;;;;;;4.40;100.00;96403.25;4951034;28;105327;-75
2023/10/17 04:49:58;;;;;;;27.40;17.77;;;;;;;4.16;100.00;96405.81;4952483;28;101994;-75
2023/10/17 04:52:30;;;;;;;24.47;18.70;;;;;;;4.15;100.00;96398.94;4951530;28;103837;-75
2023/10/17 04:55:08;;;;;;;30.93;18.87;;;;;;;4.15;100.00;96404.22;4954619;28;105649;-75
2023/10/17 05:00:25;;;;;;;29.43;20.20;;;;;;;4.02;100.00;96415.59;4951126;28;105527;-75
2023/10/17 05:03:03;;;;;;;28.43;19.70;;;;;;;4.04;100.00;96415.41;4951501;28;101929;-75
2023/10/17 05:06:00;;;;;;;25.40;19.07;;;;;;;3.87;100.00;96420.31;4951155;28;105460;-75
2023/10/17 05:08:49;;;;;;;28.33;20.17;;;;;;;3.74;100.00;96436.13;4952183;28;102872;-74
2023/10/17 06:17:53;;;;;;;28.37;19.57;;;;;;;4.69;100.00;96436.91;4949973;28;101856;-77
2023/10/17 06:20:43;;;;;;;26.33;18.70;;;;;;;4.70;100.00;96438.50;4951680;28;102599;-77
2023/10/17 06:23:24;;;;;;;29.90;19.23;;;;;;;4.62;100.00;96443.22;4949695;28;105384;-77
2023/10/17 06:26:46;;;;;;;27.27;18.80;;;;;;;4.56;100.00;96442.25;4949385;28;101979;-77
2023/10/17 06:30:04;;;;;;;26.13;18.97;;;;;;;4.66;100.00;96444.41;4948611;28;105676;-76
2023/10/17 06:31:54;;;;;;;27.80;19.97;;;;;;;4.83;100.00;96448.97;4951563;28;105408;-76
2023/10/17 06:34:21;;;;;;;27.30;19.27;;;;;;;4.89;100.00;96453.38;4949271;28;104868;-76
2023/10/17 06:36:58;;;;;;;25.50;19.50;;;;;;;5.02;100.00;96447.22;4948169;28;104034;-76
2023/10/17 06:39:26;;;;;;;24.63;17.87;;;;;;;5.03;100.00;96444.34;4948580;28;101962;-76
2023/10/17 06:41:58;;;;;;;24.03;18.30;;;;;;;5.03;100.00;96443.56;4948892;28;104890;-76
2023/10/17 06:44:26;;;;;;;22.33;17.17;;;;;;;5.12;100.00;96447.56;4948469;28;105727;-76
2023/10/17 06:46:55;;;;;;;24.47;17.30;;;;;;;5.16;100.00;96448.72;4948968;28;101967;-76
2023/10/17 06:49:30;;;;;;;20.30;15.93;;;;;;;5.24;100.00;96448.47;4948144;28;105211;-76
2023/10/17 06:54:41;;;;;;;18.17;14.00;;;;;;;5.28;100.00;96444.34;4951747;28;101868;-76
2023/10/17 06:57:18;;;;;;;17.30;13.37;;;;;;;5.24;100.00;96445.84;4948227;28;105583;-76
2023/10/17 06:59:46;;;;;;;18.10;13.00;;;;;;;5.09;100.00;96442.69;4948915;28;101812;-76
2023/10/17 07:02:18;;;;;;;17.37;13.37;;;;;;;5.05;100.00;96444.97;4950125;28;102735;-76
2023/10/17 07:04:49;;;;;;;16.20;13.27;;;;;;;5.21;100.00;96446.25;4949641;28;101754;-76
2023/10/17 07:07:22;;;;;;;16.53;13.67;;;;;;;5.09;100.00;96447.97;4948700;28;101858;-76
2023/10/17 07:09:52;;;;;;;17.17;13.47;;;;;;;5.20;100.00;96447.28;4948608;28;105431;-76
2023/10/17 07:12:20;;;;;;;18.47;13.80;;;;;;;5.23;100.00;96449.50;4949499;28;102782;-76
2023/10/17 07:14:51;;;;;;;17.77;13.57;;;;;;;5.26;100.00;96459.59;4948396;28;101950;-76
2023/10/17 07:17:29;;;;;;;18.57;14.43;;;;;;;5.05;100.00;96470.50;4951446;28;104139;-76
2023/10/17 07:19:59;;;;;;;20.73;16.17;;;;;;;5.02;100.00;96463.03;4948473;28;101940;-76
2023/10/17 07:22:35;;;;;;;16.70;14.63;;;;;;;4.98;100.00;96461.84;4948318;28;105249;-76
2023/10/17 07:25:02;;;;;;;21.03;15.37;;;;;;;5.07;100.00;96463.22;4947847;28;105096;-76
2023/10/17 07:27:35;;;;;;;20.43;15.00;;;;;;;4.90;100.00;96465.53;4948417;28;101883;-76
2023/10/17 07:30:10;;;;;;;22.17;16.03;;;;;;;4.91;100.00;96474.25;4948184;28;105711;-76
2023/10/17 07:32:49;;;;;;;20.53;16.43;;;;;;;5.01;100.00;96477.22;4947853;28;104336;-76
2023/10/17 07:35:23;;;;;;;19.33;15.63;;;;;;;4.79;100.00;96473.31;4949664;28;101947;-76
2023/10/17 07:37:54;;;;;;;19.97;15.37;;;;;;;5.12;100.00;96487.09;4949365;28;102830;-76
2023/10/17 07:40:31;;;;;;;21.93;16.37;;;;;;;5.35;100.00;96485.47;4953831;28;105440;-76
2023/10/17 07:43:01;;;;;;;19.73;16.00;;;;;;;5.39;100.00;96481.38;4951354;28;105397;-77
2023/10/17 07:45:38;;;;;;;18.93;15.30;;;;;;;5.56;100.00;96479.03;4950521;28;104146;-77
2023/10/17 07:48:21;;;;;;;19.10;14.90;;;;;;;5.66;100.00;96472.22;4951248;28;101941;-77
2023/10/17 07:50:50;;;;;;;17.13;14.10;;;;;;;5.69;100.00;96468.34;4951354;28;104943;-77
2023/10/17 07:53:20;;;;;;;16.90;14.27;;;;;;;5.73;100.00;96467.69;4950774;28;104046;-77
2023/10/17 07:55:48;;;;;;;17.17;13.63;;;;;;;5.79;100.00;96461.53;4951288;28;101978;-77
2023/10/17 07:58:35;;;;;;;17.53;14.03;;;;;;;5.94;100.00;96461.22;4951080;28;105066;-77
2023/10/17 08:01:07;;;;;;;16.80;13.17;;;;;;;6.01;100.00;96457.44;4956247;28;105447;-77
2023/10/17 08:03:40;;;;;;;16.13;13.67;;;;;;;6.02;100.00;96453.00;4954633;28;105150;-77
2023/10/17 08:06:12;;;;;;;17.30;14.00;;;;;;;6.05;100.00;96449.94;4971990;28;103225;-77
2023/10/17 08:08:42;;;;;;;18.20;14.37;;;;;;;6.06;100.00;96447.03;4954526;28;101786;-77
2023/10/17 08:11:26;;;;;;;15.17;13.17;;;;;;;6.20;100.00;96439.78;4954575;28;105279;-77
2023/10/17 08:13:53;;;;;;;15.17;12.70;;;;;;;6.24;100.00;96443.59;4953798;28;105958;-77
2023/10/17 08:16:24;;;;;;;17.23;13.60;;;;;;;6.17;100.00;96442.88;4954496;28;101936;-77
2023/10/17 08:18:58;;;;;;;16.83;12.70;;;;;;;6.44;100.00;96433.59;4972219;28;102731;-77
2023/10/17 08:21:33;;;;;;;16.23;13.23;;;;;;;6.61;100.00;96437.22;4953771;28;105542;-77
2023/10/17 08:24:00;;;;;;;15.10;12.83;;;;;;;6.78;100.00;96438.19;4957752;28;101912;-77
2023/10/17 08:26:29;;;;;;;14.37;12.23;;;;;;;6.82;100.00;96428.78;4953710;28;105995;-77
2023/10/17 08:29:00;;;;;;;15.70;13.70;;;;;;;6.91;100.00;96435.34;4954185;28;102254;-77
2023/10/17 08:31:35;;;;;;;17.07;13.27;;;;;;;6.92;100.00;96421.91;4954304;28;105339;-77
2023/10/17 08:34:12;;;;;;;15.93;12.73;;;;;;;6.97;100.00;96429.16;4953561;28;105594;-77
2023/10/17 08:36:47;;;;;;;15.93;12.67;;;;;;;6.96;100.00;96430.19;4953990;28;101809;-77
2023/10/17 08:42:14;;;;;;;17.27;13.77;;;;;;;7.13;100.00;96423.22;4952721;28;105041;-77
2023/10/17 08:44:46;;;;;;;19.13;13.30;;;;;;;7.34;100.00;96427.97;4953934;28;101994;-77
2023/10/17 08:47:16;;;;;;;16.97;13.23;;;;;;;7.00;100.00;96424.25;4956928;28;105037;-77
2023/10/17 08:49:48;;;;;;;14.47;12.83;;;;;;;7.27;100.00;96425.44;4953769;28;101903;-77
2023/10/17 08:52:24;;;;;;;14.03;12.30;;;;;;;7.62;100.00;96428.06;4953685;28;104822;-77
2023/10/17 08:54:52;;;;;;;14.67;13.17;;;;;;;7.57;100.00;96425.31;4953224;28;105779;-77
2023/10/17 08:57:19;;;;;;;14.03;12.53;;;;;;;7.34;100.00;96425.31;4953628;28;101819;-77
2023/10/17 09:02:30;;;;;;;15.07;12.80;;;;;;;6.91;100.00;96433.53;4953403;28;105106;-77
2023/10/17 09:05:05;;;;;;;16.50;13.43;;;;;;;7.19;100.00;96427.63;4953689;28;101921;-77
2023/10/17 09:07:42;;;;;;;14.90;13.30;;;;;;;7.54;100.00;96420.50;4971412;28;102592;-77
2023/10/17 09:10:17;;;;;;;14.03;12.37;;;;;;;7.93;100.00;96425.88;4956525;28;105194;-76
2023/10/17 09:13:14;;;;;;;14.47;12.40;;;;;;;7.92;100.00;96423.47;4952702;28;105192;-76
2023/10/17 09:15:31;;;;;;;13.60;12.00;;;;;;;8.37;100.00;96425.22;4952636;28;104094;-76
2023/10/17 09:18:07;;;;;;;12.53;10.30;;;;;;;8.37;100.00;96416.47;4953476;28;101893;-76
2023/10/17 09:20:39;;;;;;;11.93;10.27;;;;;;;8.38;100.00;96426.03;4953238;28;104205;-76
2023/10/17 09:23:22;;;;;;;11.27;9.87;;;;;;;8.38;100.00;96421.53;4952734;28;105531;-76
2023/10/17 09:25:54;;;;;;;17.17;13.50;;;;;;;8.47;100.00;96411.38;4954188;28;101990;-76
2023/10/17 09:28:24;;;;;;;11.90;10.20;;;;;;;8.63;100.00;96418.56;4953347;28;105060;-76
2023/10/17 09:31:02;;;;;;;13.50;11.50;;;;;;;8.86;100.00;96415.78;4952754;28;105102;-77
2023/10/17 09:33:31;;;;;;;20.23;15.00;;;;;;;8.76;100.00;96416.44;4956516;28;101885;-77
2023/10/17 09:36:04;;;;;;;11.60;10.37;;;;;;;8.43;100.00;96421.63;4952412;28;105926;-77
2023/10/17 09:38:33;;;;;;;12.67;10.47;;;;;;;8.74;100.00;96428.31;4953347;28;101886;-77
2023/10/17 09:41:00;;;;;;;24.43;16.23;;;;;;;8.82;100.00;96422.59;4952913;28;104023;-77
2023/10/17 09:43:27;;;;;;;13.90;12.10;;;;;;;8.94;100.00;96418.06;4952598;28;105125;-77
2023/10/17 09:46:02;;;;;;;16.77;10.37;;;;;;;8.99;100.00;96415.50;4953143;28;102177;-77
2023/10/17 09:48:34;;;;;;;12.50;9.80;;;;;;;8.95;100.00;96417.03;4952882;28;105488;-77
2023/10/17 09:51:04;;;;;;;10.67;9.50;;;;;;;8.96;100.00;96415.97;4953143;28;104206;-77
2023/10/17 09:53:33;;;;;;;9.93;8.93;;;;;;;8.91;100.00;96413.22;4953832;28;101903;-77
2023/10/17 09:56:06;;;;;;;9.67;8.40;;;;;;;8.88;100.00;96408.44;4956578;28;105459;-77
2023/10/17 09:58:37;;;;;;;10.40;9.30;;;;;;;8.89;100.00;96410.03;4971635;28;101724;-77
2023/10/17 10:01:08;;;;;;;10.13;9.13;;;;;;;8.87;100.00;96409.44;4971623;28;102609;-77
2023/10/17 10:03:37;;;;;;;11.13;8.97;;;;;;;8.87;100.00;96409.44;4953160;28;105682;-77
2023/10/17 10:06:22;;;;;;;10.73;9.63;;;;;;;8.94;100.00;96412.78;4953842;28;102022;-77
2023/10/17 10:08:54;;;;;;;11.10;9.47;;;;;;;8.88;100.00;96408.44;4953614;28;104028;-77
2023/10/17 10:11:21;;;;;;;11.67;10.47;;;;;;;8.64;100.00;96412.22;4953054;28;105147;-77
2023/10/17 10:14:03;;;;;;;9.70;8.70;;;;;;;8.63;100.00;96408.78;4952464;28;102016;-77
2023/10/17 10:16:49;;;;;;;10.60;9.50;;;;;;;9.00;100.00;96404.63;4956548;28;104046;-77
2023/10/17 10:19:16;;;;;;;11.77;9.80;;;;;;;9.42;100.00;96410.34;4953474;28;101839;-77
2023/10/17 10:22:02;;;;;;;9.37;8.47;;;;;;;9.38;100.00;96399.41;4953573;28;105519;-77
2023/10/17 10:24:31;;;;;;;10.00;9.00;;;;;;;9.82;100.00;96398.47;4951835;28;105535;-77
2023/10/17 10:27:19;;;;;;;9.10;7.73;;;;;;;9.78;100.00;96393.91;4971155;28;101841;-77
2023/10/17 10:29:49;;;;;;;9.70;8.70;;;;;;;9.46;100.00;96400.88;4953351;28;105157;-77
2023/10/17 10:32:34;;;;;;;10.10;9.00;;;;;;;9.45;100.00;96388.66;4970142;28;102708;-77
2023/10/17 10:35:03;;;;;;;10.23;8.87;;;;;;;9.17;100.00;96381.56;4953055;28;101937;-77
2023/10/17 10:37:33;;;;;;;11.27;9.80;;;;;;;9.17;100.00;96386.09;4953307;28;105359;-77
2023/10/17 10:40:12;;;;;;;11.60;10.37;;;;;;;9.11;100.00;96382.53;4955497;28;105754;-77
2023/10/17 10:42:43;;;;;;;11.17;9.87;;;;;;;9.62;100.00;96384.13;4952176;28;105121;-77
2023/10/17 10:45:24;;;;;;;11.80;9.37;;;;;;;9.79;100.00;96382.22;4970158;28;102896;-77
2023/10/17 10:47:57;;;;;;;11.20;10.00;;;;;;;9.96;100.00;96375.81;4970843;28;102224;-77
2023/10/17 10:50:27;;;;;;;11.10;10.00;;;;;;;9.99;100.00;96375.34;4952152;28;105163;-77
2023/10/17 10:52:56;;;;;;;10.43;9.20;;;;;;;10.03;100.00;96373.78;4951368;28;105088;-77
2023/10/17 10:55:25;;;;;;;10.10;9.00;;;;;;;10.16;100.00;96359.38;4952845;28;102016;-77
2023/10/17 10:57:52;;;;;;;12.10;10.10;;;;;;;10.32;100.00;96358.50;4952889;28;105423;-77
2023/10/17 11:00:19;;;;;;;11.60;10.40;;;;;;;10.44;100.00;96357.31;4951549;28;104024;-77
2023/10/17 11:02:47;;;;;;;11.17;10.07;;;;;;;10.48;100.00;96349.63;4955707;28;101921;-77
2023/10/17 11:05:15;;;;;;;10.57;9.47;;;;;;;10.12;100.00;96348.44;4951457;28;103852;-77
2023/10/17 11:07:42;;;;;;;10.03;9.03;;;;;;;10.31;100.00;96346.25;4970343;28;101912;-77
2023/10/17 11:10:13;;;;;;;10.33;9.33;;;;;;;10.56;100.00;96343.84;4952774;28;105657;-77
2023/10/17 11:12:42;;;;;;;11.10;10.00;;;;;;;10.86;100.00;96349.47;4952163;28;105386;-77
2023/10/17 11:15:11;;;;;;;10.17;9.17;;;;;;;10.83;100.00;96344.63;4951622;28;102002;-77
2023/10/17 11:17:40;;;;;;;10.30;9.20;;;;;;;11.02;100.00;96344.00;4952701;28;105527;-77
2023/10/17 11:20:14;;;;;;;10.20;9.10;;;;;;;11.23;100.00;96339.66;4952037;28;105595;-77
2023/10/17 11:22:41;;;;;;;10.37;9.27;;;;;;;11.35;100.00;96342.94;4952528;28;101870;-77
2023/10/17 11:25:15;;;;;;;10.37;9.27;;;;;;;11.27;100.00;96335.41;4955121;28;105019;-77
2023/10/17 11:27:53;;;;;;;11.73;9.40;;;;;;;11.33;100.00;96339.75;4952649;28;101729;-77
2023/10/17 11:30:29;;;;;;;9.90;8.87;;;;;;;11.41;100.00;96333.91;4952493;28;105014;-77
2023/10/17 11:33:02;;;;;;;10.53;9.43;;;;;;;11.37;100.00;96335.47;4951945;28;105508;-77
2023/10/17 11:35:30;;;;;;;9.47;8.57;;;;;;;11.45;100.00;96330.47;4951825;28;101964;-77
2023/10/17 11:37:58;;;;;;;9.90;8.90;;;;;;;11.49;100.00;96325.44;4952360;28;104925;-77
2023/10/17 11:40:38;;;;;;;9.20;7.90;;;;;;;11.43;100.00;96329.94;4951462;28;106177;-77
2023/10/17 11:43:17;;;;;;;10.70;8.83;;;;;;;10.54;100.00;96322.84;4952542;28;101761;-77
2023/10/17 11:45:44;;;;;;;9.83;8.83;;;;;;;11.62;100.00;96325.03;4952254;28;105793;-77
2023/10/17 11:48:26;;;;;;;9.67;8.70;;;;;;;11.46;100.00;96317.97;4955097;28;104441;-77
2023/10/17 11:51:08;;;;;;;9.50;8.60;;;;;;;11.29;100.00;96318.13;4952165;28;105503;-77
2023/10/17 11:53:37;;;;;;;9.13;8.17;;;;;;;11.43;100.00;96323.81;4951506;28;106148;-77
2023/10/17 11:56:06;;;;;;;8.47;7.67;;;;;;;11.84;100.00;96325.69;4952190;28;101838;-77
2023/10/17 11:58:34;;;;;;;8.37;7.57;;;;;;;11.98;100.00;96316.94;4952085;28;105407;-77
2023/10/17 12:01:02;;;;;;;8.30;7.50;;;;;;;12.06;100.00;96318.31;4951678;28;105555;-77
2023/10/17 12:03:29;;;;;;;8.97;7.90;;;;;;;11.89;100.00;96323.81;4969926;28;101802;-77
2023/10/17 12:06:00;;;;;;;8.30;7.50;;;;;;;11.26;100.00;96328.47;4951858;28;105427;-77
2023/10/17 12:08:30;;;;;;;7.97;7.20;;;;;;;11.15;100.00;96324.97;4969446;28;103240;-77
2023/10/17 12:10:57;;;;;;;7.97;7.17;;;;;;;11.20;100.00;96319.69;4955525;28;101764;-77
2023/10/17 12:13:27;;;;;;;8.90;8.00;;;;;;;11.37;100.00;96322.16;4951445;28;105720;-77
2023/10/17 12:15:56;;;;;;;8.60;7.80;;;;;;;11.74;100.00;96318.44;4952139;28;101964;-77
2023/10/17 12:18:25;;;;;;;9.10;7.50;;;;;;;12.28;100.00;96314.41;4951929;28;104651;-77
2023/10/17 12:20:55;;;;;;;7.90;7.10;;;;;;;12.08;100.00;96314.31;4951398;28;105787;-77
2023/10/17 12:23:29;;;;;;;7.63;6.93;;;;;;;12.38;100.00;96313.63;4969441;28;102156;-77
2023/10/17 12:26:01;;;;;;;7.63;6.90;;;;;;;12.77;100.00;96314.75;4951840;28;104094;-77
2023/10/17 12:28:30;;;;;;;7.00;6.40;;;;;;;12.30;100.00;96309.59;4951289;28;105658;-77
2023/10/17 12:30:57;;;;;;;7.73;6.90;;;;;;;12.70;100.00;96308.88;4955368;28;101997;-77
2023/10/17 12:33:24;;;;;;;7.23;6.53;;;;;;;12.41;100.00;96315.75;4951269;28;105861;-77
2023/10/17 12:35:52;;;;;;;7.17;6.57;;;;;;;12.41;100.00;96305.88;4951252;28;103819;-77
2023/10/17 12:38:25;;;;;;;7.27;6.57;;;;;;;12.14;100.00;96307.94;4969637;28;101763;-77
2023/10/17 12:40:53;;;;;;;6.77;6.17;;;;;;;12.06;100.00;96308.47;4947776;28;105188;-77
2023/10/17 12:43:21;;;;;;;7.07;6.37;;;;;;;12.32;100.00;96298.69;4948303;28;101999;-77
2023/10/17 12:45:50;;;;;;;7.30;6.70;;;;;;;12.15;100.00;96304.22;4948273;28;105010;-77
2023/10/17 12:48:16;;;;;;;10.23;8.37;;;;;;;11.91;100.00;96300.41;4949986;28;104553;-77
2023/10/17 12:50:44;;;;;;;12.50;9.00;;;;;;;11.66;100.00;96308.25;4951718;28;102095;-77
2023/10/17 12:53:12;;;;;;;7.33;6.73;;;;;;;11.75;100.00;96301.41;4954539;28;104931;-77
2023/10/17 12:55:39;;;;;;;10.17;9.17;;;;;;;12.10;100.00;96300.75;4951502;28;101902;-76
2023/10/17 12:58:07;;;;;;;7.63;6.93;;;;;;;12.35;100.00;96292.81;4953002;28;102575;-77
2023/10/17 13:00:34;;;;;;;6.77;6.10;;;;;;;12.52;100.00;96299.50;4950941;28;105365;-77
2023/10/17 13:03:03;;;;;;;8.37;7.60;;;;;;;12.52;100.00;96296.03;4951592;28;102007;-77
2023/10/17 13:05:30;;;;;;;6.10;5.50;;;;;;;12.70;100.00;96298.22;4951789;28;103751;-77